KLRD/LRD METAR and TAF weather

Enter ICAO airport designator
Station Type Date Time Source
KLRD METAR 2022/09/26 08:56 UTC NOAA

KLRD 260856Z AUTO 08003KT 10SM CLR 23/21 A2996 RMK AO2 SLP142 T02330206 56007


Station Type Date Time Source
KLRD Decoded METAR 2022/09/26 08:56 UTC NOAA

Laredo, Laredo International Airport, TX, United States (KLRD) 27-32-37N 099-27-41W
Sep 26, 2022 - 04:56 AM EDT / 2022.09.26 0856 UTC
Wind: from the E (080 degrees) at 3 MPH (3 KT):0
Visibility: 10 mile(s):0
Sky conditions: clear
Temperature: 73.9 F (23.3 C)
Dew Point: 69.1 F (20.6 C)
Relative Humidity: 84%
Pressure (altimeter): 29.96 in. Hg (1014 hPa)
Pressure tendency: 0.02 inches (0.7 hPa) lower than three hours ago
ob: KLRD 260856Z AUTO 08003KT 10SM CLR 23/21 A2996 RMK AO2 SLP142 T02330206 56007
cycle: 9

Station Type Date Time Source
KLRD TAF 2022/09/26 06:30 UTC NOAA

TAF KLRD 260528Z 2606/2706 VRB06KT P6SM FEW040 SCT150
TEMPO 2610/2613 5SM BR
FM261400 05008KT P6SM SCT060
FM270300 12006KT P6SM SCT250

Example: see airport list